Time;durP1;ratioP1;P1;durP2;ratioP2;P2;SDS_P1;SDS_P2;PMS_P1;PMS_P2;Temp;Humidity;BMP_temperature;BMP_pressure;BME280_temperature;BME280_humidity;BME280_pressure;Samples;Min_cycle;Max_cycle;Signal;HPM_P1;HPM_P2
2023/10/24 00:01:17;;;;;;;32.58;20.85;;;;;;;-143.90;100.00;65065.84;6186501;23;20365;-86
2023/10/24 00:03:42;;;;;;;30.98;18.55;;;;;;;-143.90;100.00;65065.84;6211363;23;20379;-86
2023/10/24 00:06:08;;;;;;;27.40;16.73;;;;;;;-143.90;100.00;65065.84;6213057;23;20005;-87
2023/10/24 00:08:33;;;;;;;33.42;19.77;;;;;;;-143.90;100.00;65065.84;6186372;23;20040;-86
2023/10/24 00:11:03;;;;;;;30.65;18.15;;;;;;;-143.90;100.00;65065.84;6214117;23;20009;-85
2023/10/24 00:13:30;;;;;;;29.42;18.02;;;;;;;-143.90;100.00;65065.84;6212665;23;20433;-86
2023/10/24 00:15:56;;;;;;;29.63;16.65;;;;;;;-143.90;100.00;65065.84;6212767;23;20066;-87
2023/10/24 00:18:24;;;;;;;28.00;15.55;;;;;;;-143.90;100.00;65065.84;6187546;23;20454;-86
2023/10/24 00:20:49;;;;;;;29.80;16.70;;;;;;;-143.90;100.00;65065.84;6187705;23;20011;-85
2023/10/24 00:23:14;;;;;;;28.52;16.15;;;;;;;-143.90;100.00;65065.84;6214156;23;20032;-84
2023/10/24 00:25:40;;;;;;;27.58;16.00;;;;;;;-143.90;100.00;65065.84;6214296;23;20319;-84
2023/10/24 00:28:05;;;;;;;29.17;14.75;;;;;;;-143.90;100.00;65065.84;6214205;23;20038;-83
2023/10/24 00:30:30;;;;;;;27.98;15.48;;;;;;;-143.90;100.00;65065.84;6212672;23;20019;-84
2023/10/24 00:32:55;;;;;;;25.65;14.02;;;;;;;-143.90;100.00;65065.84;6187682;23;20033;-83
2023/10/24 00:35:21;;;;;;;28.77;15.40;;;;;;;-143.90;100.00;65065.84;6187582;23;20013;-87
2023/10/24 00:37:46;;;;;;;22.35;13.15;;;;;;;-143.90;100.00;65065.84;6214284;23;20012;-85
2023/10/24 00:40:12;;;;;;;23.02;13.88;;;;;;;-143.90;100.00;65065.84;6214557;23;20012;-86
2023/10/24 00:42:37;;;;;;;20.48;11.98;;;;;;;-143.90;100.00;65065.84;6214212;23;20054;-89
2023/10/24 00:45:03;;;;;;;19.50;12.75;;;;;;;-143.90;100.00;65065.84;6214143;23;20004;-86
2023/10/24 00:47:29;;;;;;;20.08;13.23;;;;;;;-143.90;100.00;65065.84;6212626;23;20004;-86
2023/10/24 00:49:54;;;;;;;19.17;11.60;;;;;;;-143.90;100.00;65065.84;6214341;23;20001;-87
2023/10/24 00:52:20;;;;;;;18.67;12.15;;;;;;;-143.90;100.00;65065.84;6187721;23;20008;-88
2023/10/24 00:54:46;;;;;;;19.58;12.85;;;;;;;-143.90;100.00;65065.84;6214439;23;20315;-87
2023/10/24 00:57:12;;;;;;;17.70;11.95;;;;;;;-143.90;100.00;65065.84;6214407;23;20015;-87
2023/10/24 00:59:39;;;;;;;18.08;12.00;;;;;;;-143.90;100.00;65065.84;6187503;23;20075;-87
2023/10/24 01:02:06;;;;;;;17.63;10.57;;;;;;;-143.90;100.00;65065.84;6214232;23;20445;-89
2023/10/24 01:04:32;;;;;;;14.10;9.52;;;;;;;-143.90;100.00;65065.84;6187793;23;20338;-89
2023/10/24 01:06:57;;;;;;;15.88;10.05;;;;;;;-143.90;100.00;65065.84;6212837;23;20385;-87
2023/10/24 01:09:23;;;;;;;15.88;10.10;;;;;;;-143.90;100.00;65065.84;6187302;23;20004;-86
2023/10/24 01:11:49;;;;;;;14.20;9.95;;;;;;;-143.90;100.00;65065.84;6187256;23;20012;-86
2023/10/24 01:14:15;;;;;;;13.82;9.80;;;;;;;-143.90;100.00;65065.84;6187449;23;20064;-86
2023/10/24 01:16:44;;;;;;;13.35;9.15;;;;;;;-143.90;100.00;65065.84;6187404;23;20090;-85
2023/10/24 01:19:13;;;;;;;12.50;10.20;;;;;;;-143.90;100.00;65065.84;6213928;23;20075;-84
2023/10/24 01:21:44;;;;;;;11.45;7.78;;;;;;;-143.90;100.00;65065.84;6213631;23;20012;-83
2023/10/24 01:24:12;;;;;;;11.48;7.32;;;;;;;-143.90;100.00;65065.84;6212275;23;20011;-85
2023/10/24 01:26:38;;;;;;;13.02;7.65;;;;;;;-143.90;100.00;65065.84;6187252;23;20063;-87
2023/10/24 01:29:03;;;;;;;10.68;5.88;;;;;;;-143.90;100.00;65065.84;6213941;23;20020;-86
2023/10/24 01:31:29;;;;;;;12.13;7.57;;;;;;;-143.90;100.00;65065.84;6187499;23;20334;-87
2023/10/24 01:33:54;;;;;;;9.18;7.13;;;;;;;-143.90;100.00;65065.84;6214540;23;20009;-88
2023/10/24 01:36:19;;;;;;;10.07;6.68;;;;;;;-143.90;100.00;65065.84;6212486;23;20012;-88
2023/10/24 01:38:45;;;;;;;14.80;7.47;;;;;;;-143.90;100.00;65065.84;6213905;23;20024;-87
2023/10/24 01:41:10;;;;;;;9.93;6.63;;;;;;;-143.90;100.00;65065.84;6214028;23;20500;-87
2023/10/24 01:43:35;;;;;;;12.25;7.50;;;;;;;-143.90;100.00;65065.84;6187290;23;20252;-88
2023/10/24 01:46:00;;;;;;;10.88;7.20;;;;;;;-143.90;100.00;65065.84;6214069;23;20322;-87
2023/10/24 01:48:26;;;;;;;16.85;9.15;;;;;;;-143.90;100.00;65065.84;6214148;23;20036;-88
2023/10/24 01:50:51;;;;;;;12.00;7.18;;;;;;;-143.90;100.00;65065.84;6214192;23;20072;-87
2023/10/24 01:53:16;;;;;;;13.20;7.78;;;;;;;-143.90;100.00;65065.84;6213865;23;20016;-87
2023/10/24 01:55:42;;;;;;;10.40;7.15;;;;;;;-143.90;100.00;65065.84;6214085;23;20001;-87
2023/10/24 01:58:07;;;;;;;11.73;7.57;;;;;;;-143.90;100.00;65065.84;6187511;23;20031;-87
2023/10/24 02:00:32;;;;;;;9.73;7.05;;;;;;;-143.90;100.00;65065.84;6187409;23;20047;-88
2023/10/24 02:02:58;;;;;;;10.10;6.65;;;;;;;-143.90;100.00;65065.84;6212405;23;20444;-85
2023/10/24 02:05:23;;;;;;;12.15;8.13;;;;;;;-143.90;100.00;65065.84;6214085;23;20001;-88
2023/10/24 02:07:48;;;;;;;10.45;7.25;;;;;;;-143.90;100.00;65065.84;6212406;23;20036;-87
2023/10/24 02:10:14;;;;;;;12.07;7.38;;;;;;;-143.90;100.00;65065.84;6187402;23;20009;-86
2023/10/24 02:12:40;;;;;;;12.23;8.52;;;;;;;-143.90;100.00;65065.84;6213847;23;20336;-87
2023/10/24 02:15:05;;;;;;;11.65;7.35;;;;;;;-143.90;100.00;65065.84;6213989;23;20044;-88
2023/10/24 02:17:31;;;;;;;14.25;7.03;;;;;;;-143.90;100.00;65065.84;6214031;23;20437;-87
2023/10/24 02:19:56;;;;;;;10.20;7.05;;;;;;;-143.90;100.00;65065.84;6213935;23;20418;-87
2023/10/24 02:22:21;;;;;;;10.75;6.68;;;;;;;-143.90;100.00;65065.84;6213968;23;20377;-87
2023/10/24 02:24:47;;;;;;;12.13;6.88;;;;;;;-143.90;100.00;65065.84;6214154;23;20086;-84
2023/10/24 02:27:12;;;;;;;9.10;6.45;;;;;;;-143.90;100.00;65065.84;6212300;23;20012;-85
2023/10/24 02:29:37;;;;;;;9.52;6.85;;;;;;;-143.90;100.00;65065.84;6187212;23;20426;-88
2023/10/24 02:32:03;;;;;;;9.38;6.72;;;;;;;-143.90;100.00;65065.84;6186624;23;20091;-89
2023/10/24 02:34:28;;;;;;;8.65;5.90;;;;;;;-143.90;100.00;65065.84;6213988;23;20452;-87
2023/10/24 02:36:54;;;;;;;12.60;8.05;;;;;;;-143.90;100.00;65065.84;6213826;23;20004;-90
2023/10/24 02:39:20;;;;;;;10.82;6.93;;;;;;;-143.90;100.00;65065.84;6212238;23;20059;-89
2023/10/24 02:41:46;;;;;;;9.13;7.32;;;;;;;-143.90;100.00;65065.84;6187313;23;20361;-91
2023/10/24 02:44:11;;;;;;;9.85;7.13;;;;;;;-143.90;100.00;65065.84;6214082;23;20019;-92
2023/10/24 02:46:36;;;;;;;8.90;5.93;;;;;;;-143.90;100.00;65065.84;6214017;23;20001;-90
2023/10/24 02:49:02;;;;;;;8.93;6.03;;;;;;;-143.90;100.00;65065.84;6212057;23;20012;-88
2023/10/24 02:51:27;;;;;;;9.45;7.10;;;;;;;-143.90;100.00;65065.84;6212470;23;20337;-88
2023/10/24 02:53:52;;;;;;;8.27;5.50;;;;;;;-143.90;100.00;65065.84;6213734;23;20429;-87
2023/10/24 02:56:18;;;;;;;8.30;6.65;;;;;;;-143.90;100.00;65065.84;6213918;23;20005;-87
2023/10/24 02:58:43;;;;;;;8.07;5.95;;;;;;;-143.90;100.00;65065.84;6212231;23;20009;-87
2023/10/24 03:01:08;;;;;;;10.23;6.00;;;;;;;-143.90;100.00;65065.84;6186908;23;20342;-85
2023/10/24 03:03:33;;;;;;;7.90;6.15;;;;;;;-143.90;100.00;65065.84;6186888;23;20353;-85
2023/10/24 03:05:59;;;;;;;9.93;6.25;;;;;;;-143.90;100.00;65065.84;6187071;23;20004;-85
2023/10/24 03:08:24;;;;;;;9.32;6.65;;;;;;;-143.90;100.00;65065.84;6212046;23;20016;-85
2023/10/24 03:10:50;;;;;;;10.68;6.57;;;;;;;-143.90;100.00;65065.84;6186901;23;20015;-86
2023/10/24 03:13:15;;;;;;;10.27;6.80;;;;;;;-143.90;100.00;65065.84;6213436;23;20009;-84
2023/10/24 03:15:41;;;;;;;9.20;6.72;;;;;;;-143.90;100.00;65065.84;6186908;23;20430;-85
2023/10/24 03:18:06;;;;;;;8.57;6.47;;;;;;;-143.90;100.00;65065.84;6211794;23;20008;-85
2023/10/24 03:20:32;;;;;;;7.38;5.95;;;;;;;-143.90;100.00;65065.84;6213530;23;20468;-87
2023/10/24 03:22:57;;;;;;;10.18;7.68;;;;;;;-143.90;100.00;65065.84;6211842;23;20039;-83
2023/10/24 03:25:26;;;;;;;9.52;5.88;;;;;;;-143.90;100.00;65065.84;6213570;23;20009;-85
2023/10/24 03:27:54;;;;;;;8.90;6.10;;;;;;;-143.90;100.00;65065.84;6186729;23;20031;-85
2023/10/24 03:30:21;;;;;;;9.60;6.65;;;;;;;-143.90;100.00;65065.84;6186656;23;20036;-86
2023/10/24 03:32:46;;;;;;;9.00;6.25;;;;;;;-143.90;100.00;65065.84;6213400;23;20429;-88
2023/10/24 03:35:12;;;;;;;8.77;5.85;;;;;;;-143.90;100.00;65065.84;6186783;23;20088;-86
2023/10/24 03:37:38;;;;;;;8.82;6.30;;;;;;;-143.90;100.00;65065.84;6186735;23;20016;-87
2023/10/24 03:40:04;;;;;;;8.57;6.53;;;;;;;-143.90;100.00;65065.84;6211832;23;20005;-87
2023/10/24 03:42:30;;;;;;;8.20;5.90;;;;;;;-143.90;100.00;65065.84;6211861;23;20013;-88
2023/10/24 03:44:55;;;;;;;7.57;5.97;;;;;;;-143.90;100.00;65065.84;6213195;23;20008;-85
2023/10/24 03:47:21;;;;;;;9.38;6.18;;;;;;;-143.90;100.00;65065.84;6186571;23;20492;-86
2023/10/24 03:49:46;;;;;;;8.77;6.90;;;;;;;-143.90;100.00;65065.84;6211935;23;20016;-85
2023/10/24 03:52:11;;;;;;;9.60;7.03;;;;;;;-143.90;100.00;65065.84;6186690;23;20047;-84
2023/10/24 03:54:37;;;;;;;9.88;6.28;;;;;;;-143.90;100.00;65065.84;6213322;23;20011;-87
2023/10/24 03:57:02;;;;;;;9.40;6.40;;;;;;;-143.90;100.00;65065.84;6211954;23;20092;-86
2023/10/24 03:59:28;;;;;;;8.68;6.20;;;;;;;-143.90;100.00;65065.84;6213231;23;20476;-85
2023/10/24 04:01:53;;;;;;;9.50;7.68;;;;;;;-143.90;100.00;65065.84;6211657;23;20020;-86
2023/10/24 04:04:18;;;;;;;10.07;6.95;;;;;;;-143.90;100.00;65065.84;6212967;23;20004;-86
2023/10/24 04:06:43;;;;;;;9.38;5.90;;;;;;;-143.90;100.00;65065.84;6186431;23;20009;-85
2023/10/24 04:09:09;;;;;;;9.45;7.60;;;;;;;-143.90;100.00;65065.84;6213183;23;20000;-85
2023/10/24 04:11:34;;;;;;;10.38;6.80;;;;;;;-143.90;100.00;65065.84;6186551;23;20009;-86
2023/10/24 04:14:00;;;;;;;9.05;6.55;;;;;;;-143.90;100.00;65065.84;6186339;23;20016;-85
2023/10/24 04:16:26;;;;;;;8.27;6.63;;;;;;;-143.90;100.00;65065.84;6212953;23;20004;-83
2023/10/24 04:18:51;;;;;;;10.98;7.18;;;;;;;-143.90;100.00;65065.84;6212695;23;20001;-83
2023/10/24 04:21:17;;;;;;;8.88;7.07;;;;;;;-143.90;100.00;65065.84;6212867;23;20434;-82
2023/10/24 04:23:45;;;;;;;9.88;7.50;;;;;;;-143.90;100.00;65065.84;6211618;23;20004;-83
2023/10/24 04:26:11;;;;;;;10.00;7.57;;;;;;;-143.90;100.00;65065.84;6213104;23;20441;-83
2023/10/24 04:28:38;;;;;;;9.57;7.03;;;;;;;-143.90;100.00;65065.84;6213071;23;20011;-84
2023/10/24 04:31:03;;;;;;;8.85;6.85;;;;;;;-143.90;100.00;65065.84;6211341;23;20016;-82
2023/10/24 04:33:29;;;;;;;10.55;7.40;;;;;;;-143.90;100.00;65065.84;6211390;23;20425;-85
2023/10/24 04:35:54;;;;;;;8.85;6.57;;;;;;;-143.90;100.00;65065.84;6212976;23;20371;-84
2023/10/24 04:38:20;;;;;;;9.80;7.25;;;;;;;-143.90;100.00;65065.84;6213052;23;20084;-85
2023/10/24 04:40:46;;;;;;;8.07;6.30;;;;;;;-143.90;100.00;65065.84;6211309;23;20008;-84
2023/10/24 04:43:12;;;;;;;9.57;6.55;;;;;;;-143.90;100.00;65065.84;6186110;23;20066;-84
2023/10/24 04:45:38;;;;;;;12.98;7.50;;;;;;;-143.90;100.00;65065.84;6186045;23;20008;-85
2023/10/24 04:48:04;;;;;;;10.07;7.85;;;;;;;-143.90;100.00;65065.84;6212873;23;20001;-84
2023/10/24 04:50:30;;;;;;;10.43;7.45;;;;;;;-143.90;100.00;65065.84;6212813;23;20011;-85
2023/10/24 04:52:56;;;;;;;9.00;6.90;;;;;;;-143.90;100.00;65065.84;6212961;23;20008;-83
2023/10/24 04:55:21;;;;;;;8.35;7.18;;;;;;;-143.90;100.00;65065.84;6211590;23;20009;-84
2023/10/24 04:57:47;;;;;;;9.48;7.18;;;;;;;-143.90;100.00;65065.84;6187761;23;20005;-84
2023/10/24 05:00:13;;;;;;;9.95;7.60;;;;;;;-143.90;100.00;65065.84;6212949;23;20499;-84
2023/10/24 05:02:39;;;;;;;10.40;8.07;;;;;;;-143.90;100.00;65065.84;6214129;23;20035;-85
2023/10/24 05:05:05;;;;;;;9.10;6.78;;;;;;;-143.90;100.00;65065.84;6214345;23;20005;-83
2023/10/24 05:07:31;;;;;;;9.52;7.38;;;;;;;-143.90;100.00;65065.84;6187577;23;20013;-82
2023/10/24 05:09:56;;;;;;;10.27;7.75;;;;;;;-143.90;100.00;65065.84;6187281;23;20146;-83
2023/10/24 05:12:21;;;;;;;10.25;7.80;;;;;;;-143.90;100.00;65065.84;6187259;23;20004;-83
2023/10/24 05:14:47;;;;;;;11.40;7.97;;;;;;;-143.90;100.00;65065.84;6214178;23;20013;-83
2023/10/24 05:17:13;;;;;;;11.75;7.90;;;;;;;-143.90;100.00;65065.84;6214398;23;20070;-87
2023/10/24 05:19:39;;;;;;;9.23;7.38;;;;;;;-143.90;100.00;65065.84;6187927;23;20004;-86
2023/10/24 05:22:04;;;;;;;11.23;8.30;;;;;;;-143.90;100.00;65065.84;6187820;23;20012;-86
2023/10/24 05:24:29;;;;;;;9.60;6.80;;;;;;;-143.90;100.00;65065.84;6214216;23;20000;-85
2023/10/24 05:26:55;;;;;;;11.20;7.97;;;;;;;-143.90;100.00;65065.84;6187959;23;20040;-87
2023/10/24 05:29:21;;;;;;;11.00;8.55;;;;;;;-143.90;100.00;65065.84;6212821;23;20012;-85
2023/10/24 05:31:46;;;;;;;8.20;7.10;;;;;;;-143.90;100.00;65065.84;6187706;23;20365;-86
2023/10/24 05:34:11;;;;;;;9.00;6.88;;;;;;;-143.90;100.00;65065.84;6214117;23;20050;-86
2023/10/24 05:36:37;;;;;;;8.40;7.07;;;;;;;-143.90;100.00;65065.84;6187482;23;20430;-84
2023/10/24 05:39:02;;;;;;;7.15;6.00;;;;;;;-143.90;100.00;65065.84;6214017;23;20011;-85
2023/10/24 05:41:27;;;;;;;9.98;6.43;;;;;;;-143.90;100.00;65065.84;6212998;23;20083;-85
2023/10/24 05:43:53;;;;;;;8.80;6.32;;;;;;;-143.90;100.00;65065.84;6214316;23;20004;-84
2023/10/24 05:46:18;;;;;;;8.20;6.13;;;;;;;-143.90;100.00;65065.84;6212514;23;20016;-85
2023/10/24 05:48:44;;;;;;;7.82;6.30;;;;;;;-143.90;100.00;65065.84;6187485;23;20011;-82
2023/10/24 05:51:12;;;;;;;8.02;6.28;;;;;;;-143.90;100.00;65065.84;6214067;23;20512;-80
2023/10/24 05:53:37;;;;;;;9.10;6.57;;;;;;;-143.90;100.00;65065.84;6213904;23;20074;-80
2023/10/24 05:56:03;;;;;;;8.88;6.03;;;;;;;-143.90;100.00;65065.84;6187622;23;20005;-80
2023/10/24 05:58:28;;;;;;;9.57;6.70;;;;;;;-143.90;100.00;65065.84;6214222;23;20011;-79
2023/10/24 06:00:54;;;;;;;10.40;6.72;;;;;;;-143.90;100.00;65065.84;6187520;23;20016;-80
2023/10/24 06:03:20;;;;;;;8.13;6.28;;;;;;;-143.90;100.00;65065.84;6214391;23;20035;-80
2023/10/24 06:05:45;;;;;;;8.68;6.45;;;;;;;-143.90;100.00;65065.84;6187407;23;20014;-81
2023/10/24 06:08:10;;;;;;;9.18;6.20;;;;;;;-143.90;100.00;65065.84;6213386;23;20430;-78
2023/10/24 06:10:37;;;;;;;6.82;5.30;;;;;;;-143.90;100.00;65065.84;6214159;23;20009;-81
2023/10/24 06:13:02;;;;;;;8.68;6.45;;;;;;;-143.90;100.00;65065.84;6212447;23;20087;-79
2023/10/24 06:15:28;;;;;;;6.57;5.05;;;;;;;-143.90;100.00;65065.84;6214002;23;20092;-79
2023/10/24 06:17:55;;;;;;;6.63;5.38;;;;;;;-143.90;100.00;65065.84;6213916;23;20004;-78
2023/10/24 06:20:21;;;;;;;6.82;5.20;;;;;;;-143.90;100.00;65065.84;6187297;23;20011;-78
2023/10/24 06:22:46;;;;;;;7.80;5.40;;;;;;;-143.90;100.00;65065.84;6187538;23;20433;-77
2023/10/24 06:25:11;;;;;;;5.80;4.88;;;;;;;-143.90;100.00;65065.84;6187415;23;20008;-81
2023/10/24 06:27:37;;;;;;;8.48;5.40;;;;;;;-143.90;100.00;65065.84;6214024;23;20039;-78
2023/10/24 06:30:03;;;;;;;6.55;5.28;;;;;;;-143.90;100.00;65065.84;6214020;23;20452;-77
2023/10/24 06:32:30;;;;;;;7.13;5.07;;;;;;;-143.90;100.00;65065.84;6214006;23;20004;-79
2023/10/24 06:34:55;;;;;;;7.53;4.97;;;;;;;-143.90;100.00;65065.84;6214017;23;20039;-77
2023/10/24 06:37:20;;;;;;;7.28;5.72;;;;;;;-143.90;100.00;65065.84;6213976;23;20005;-78
2023/10/24 06:39:46;;;;;;;7.43;5.50;;;;;;;-143.90;100.00;65065.84;6212432;23;20556;-77
2023/10/24 06:42:12;;;;;;;8.38;5.97;;;;;;;-143.90;100.00;65065.84;6214089;23;20009;-75
2023/10/24 06:44:37;;;;;;;7.30;5.80;;;;;;;-143.90;100.00;65065.84;6212212;23;20310;-76
2023/10/24 06:47:03;;;;;;;6.63;5.50;;;;;;;-143.90;100.00;65065.84;6213999;23;20008;-77
2023/10/24 06:49:28;;;;;;;8.20;5.60;;;;;;;-143.90;100.00;65065.84;6187732;23;20464;-77
2023/10/24 06:51:53;;;;;;;7.78;5.18;;;;;;;-143.90;100.00;65065.84;6212307;23;20425;-77
2023/10/24 06:54:18;;;;;;;7.83;6.07;;;;;;;-143.90;100.00;65065.84;6213867;23;20430;-78
2023/10/24 06:56:44;;;;;;;7.78;6.35;;;;;;;-143.90;100.00;65065.84;6213923;23;20272;-80
2023/10/24 06:59:09;;;;;;;7.20;5.22;;;;;;;-143.90;100.00;65065.84;6214010;23;20422;-81
2023/10/24 07:01:34;;;;;;;8.57;5.70;;;;;;;-143.90;100.00;65065.84;6187232;23;20014;-78
2023/10/24 07:04:00;;;;;;;10.02;5.80;;;;;;;-143.90;100.00;65065.84;6213844;23;20016;-78
2023/10/24 07:06:25;;;;;;;9.63;6.95;;;;;;;-143.90;100.00;65065.84;6213846;23;20000;-79
2023/10/24 07:08:54;;;;;;;8.25;5.90;;;;;;;-143.90;100.00;65065.84;6214148;23;20398;-79
2023/10/24 07:11:20;;;;;;;15.13;5.97;;;;;;;-143.90;100.00;65065.84;6187586;23;20296;-79
2023/10/24 07:13:45;;;;;;;9.55;6.45;;;;;;;-143.90;100.00;65065.84;6187278;23;20012;-79
2023/10/24 07:16:15;;;;;;;9.38;6.80;;;;;;;-143.90;100.00;65065.84;6214111;23;20311;-79
2023/10/24 07:25:34;;;;;;;9.75;6.78;;;;;;;-143.90;100.00;65065.84;6122050;23;20021;-80
2023/10/24 07:28:00;;;;;;;12.52;7.10;;;;;;;-143.90;100.00;65065.84;6097184;23;20005;-79
2023/10/24 07:30:28;;;;;;;9.48;7.07;;;;;;;-143.90;100.00;65065.84;6176628;23;20449;-78
2023/10/24 07:32:56;;;;;;;9.32;6.80;;;;;;;-143.90;100.00;65065.84;6186966;23;20008;-76
2023/10/24 07:35:40;;;;;;;;;;;;;;;;;;;;;
2023/10/24 07:38:11;;;;;;;10.38;7.20;;;;;;;-143.90;100.00;65065.84;6213569;23;20075;-76
2023/10/24 07:40:36;;;;;;;14.65;8.00;;;;;;;-143.90;100.00;65065.84;6213501;23;20005;-75
2023/10/24 07:43:03;;;;;;;11.48;6.85;;;;;;;-143.90;100.00;65065.84;6213747;23;20088;-77
2023/10/24 07:45:31;;;;;;;11.48;8.32;;;;;;;-143.90;100.00;65065.84;6211874;23;20346;-81
2023/10/24 07:51:11;;;;;;;9.93;6.95;;;;;;;-143.90;100.00;65065.84;6213543;23;20016;-79
2023/10/24 07:53:36;;;;;;;11.30;7.63;;;;;;;-143.90;100.00;65065.84;6198391;23;20070;-78
2023/10/24 07:56:05;;;;;;;10.50;7.28;;;;;;;-143.90;100.00;65065.84;6186930;23;20036;-81
2023/10/24 07:58:30;;;;;;;10.70;7.57;;;;;;;-143.90;100.00;65065.84;6186847;23;20008;-80
2023/10/24 08:00:59;;;;;;;11.52;7.82;;;;;;;-143.90;100.00;65065.84;6186768;23;20095;-79
2023/10/24 08:03:35;;;;;;;11.70;7.75;;;;;;;-143.90;100.00;65065.84;6213377;23;20016;-79
2023/10/24 08:06:00;;;;;;;11.38;8.35;;;;;;;-143.90;100.00;65065.84;6212175;23;20070;-79
2023/10/24 08:08:28;;;;;;;13.10;7.70;;;;;;;-143.90;100.00;65065.84;6213471;23;20415;-78
2023/10/24 08:10:54;;;;;;;10.32;7.75;;;;;;;-143.90;100.00;65065.84;6186881;23;20015;-79
2023/10/24 08:13:19;;;;;;;10.38;8.10;;;;;;;-143.90;100.00;65065.84;6211797;23;20004;-77
2023/10/24 08:15:48;;;;;;;11.03;7.43;;;;;;;-143.90;100.00;65065.84;6187221;23;20403;-76
2023/10/24 08:18:13;;;;;;;11.85;7.13;;;;;;;-143.90;100.00;65065.84;6213119;23;20236;-77
2023/10/24 08:20:45;;;;;;;12.68;8.05;;;;;;;-143.90;100.00;65065.84;6213800;23;20054;-78
2023/10/24 08:30:31;;;;;;;10.13;6.45;;;;;;;-143.90;100.00;65065.84;6125143;23;20453;-80
2023/10/24 08:34:04;;;;;;;10.50;6.53;;;;;;;-143.90;100.00;65065.84;6214398;23;20154;-78
2023/10/24 08:36:33;;;;;;;8.60;6.32;;;;;;;-143.90;100.00;65065.84;6213673;23;20004;-79
2023/10/24 08:39:07;;;;;;;7.53;6.10;;;;;;;-143.90;100.00;65065.84;6184607;23;20088;-79
2023/10/24 08:41:33;;;;;;;8.75;6.20;;;;;;;-143.90;100.00;65065.84;6187589;23;20016;-78
2023/10/24 08:43:59;;;;;;;7.65;6.20;;;;;;;-143.90;100.00;65065.84;6214227;23;20088;-79
2023/10/24 08:46:24;;;;;;;14.30;6.70;;;;;;;-143.90;100.00;65065.84;6212832;23;20020;-78
2023/10/24 08:48:51;;;;;;;7.35;5.97;;;;;;;-143.90;100.00;65065.84;6187848;23;20004;-80
2023/10/24 08:51:16;;;;;;;10.43;5.78;;;;;;;-143.90;100.00;65065.84;6187800;23;20087;-78
2023/10/24 08:53:42;;;;;;;7.68;6.10;;;;;;;-143.90;100.00;65065.84;6214561;23;20094;-78
2023/10/24 08:56:10;;;;;;;7.70;5.75;;;;;;;-143.90;100.00;65065.84;6214331;23;20009;-78
2023/10/24 08:58:38;;;;;;;7.80;5.43;;;;;;;-143.90;100.00;65065.84;6187987;23;20499;-77
2023/10/24 09:01:04;;;;;;;8.10;6.15;;;;;;;-143.90;100.00;65065.84;6214452;23;20015;-78
2023/10/24 09:03:30;;;;;;;7.45;5.47;;;;;;;-143.90;100.00;65065.84;6187714;23;20087;-77
2023/10/24 09:05:57;;;;;;;5.78;5.07;;;;;;;-143.90;100.00;65065.84;6187978;23;20410;-79
2023/10/24 09:08:22;;;;;;;10.07;5.93;;;;;;;-143.90;100.00;65065.84;6214608;23;20050;-79
2023/10/24 09:10:47;;;;;;;8.63;5.50;;;;;;;-143.90;100.00;65065.84;6214301;23;20430;-78
2023/10/24 09:13:13;;;;;;;8.20;6.10;;;;;;;-143.90;100.00;65065.84;6212526;23;20011;-79
2023/10/24 09:15:39;;;;;;;7.97;5.82;;;;;;;-143.90;100.00;65065.84;6210963;23;20095;-78
2023/10/24 09:18:04;;;;;;;12.23;5.93;;;;;;;-143.90;100.00;65065.84;6212664;23;20083;-78
2023/10/24 09:20:35;;;;;;;10.25;6.88;;;;;;;-143.90;100.00;65065.84;6212711;23;20371;-79
2023/10/24 09:23:05;;;;;;;9.80;6.97;;;;;;;-143.90;100.00;65065.84;6214277;23;20087;-78
2023/10/24 09:25:30;;;;;;;9.73;7.00;;;;;;;-143.90;100.00;65065.84;6214486;23;20011;-78
2023/10/24 09:28:13;;;;;;;11.52;7.93;;;;;;;-143.90;100.00;65065.84;6212696;23;20055;-77
2023/10/24 09:30:39;;;;;;;11.52;7.82;;;;;;;-143.90;100.00;65065.84;6187624;23;20004;-77
2023/10/24 09:33:04;;;;;;;8.60;7.47;;;;;;;-143.90;100.00;65065.84;6187437;23;20100;-79
2023/10/24 10:30:42;;;;;;;10.23;5.85;;;;;;;-143.90;100.00;65065.84;6007170;23;20023;-77
2023/10/24 10:33:54;;;;;;;7.47;6.43;;;;;;;-143.90;100.00;65065.84;5982970;23;20012;-78
2023/10/24 10:40:27;;;;;;;9.02;6.53;;;;;;;-143.90;100.00;65065.84;5951058;24;20346;-76
2023/10/24 10:43:02;;;;;;;8.13;5.75;;;;;;;-143.90;100.00;65065.84;5979003;24;20012;-77
2023/10/24 10:45:40;;;;;;;8.52;5.93;;;;;;;-143.90;100.00;65065.84;5968544;24;20399;-76
2023/10/24 10:48:06;;;;;;;8.98;6.50;;;;;;;-143.90;100.00;65065.84;6142534;23;20441;-77
2023/10/24 10:50:33;;;;;;;10.65;7.20;;;;;;;-143.90;100.00;65065.84;6192104;23;20058;-79
2023/10/24 10:53:36;;;;;;;8.40;6.53;;;;;;;-143.90;100.00;65065.84;6216877;23;20483;-78
2023/10/24 11:03:13;;;;;;;9.63;6.82;;;;;;;-143.90;100.00;65065.84;6244180;23;20391;-79
2023/10/24 11:09:42;;;;;;;12.77;7.88;;;;;;;-143.90;100.00;65065.84;6244019;23;20023;-80
2023/10/24 11:43:32;;;;;;;;;;;;;;;;;;;;;
2023/10/24 12:02:55;;;;;;;10.27;6.38;;;;;;;-143.90;100.00;65065.84;6244320;22;20018;-79
2023/10/24 12:05:27;;;;;;;8.65;6.60;;;;;;;-143.90;100.00;65065.84;6217577;23;20392;-81
2023/10/24 12:07:56;;;;;;;9.23;6.50;;;;;;;-143.90;100.00;65065.84;6217989;23;20000;-80
2023/10/24 12:23:45;;;;;;;9.85;7.13;;;;;;;-143.90;100.00;65065.84;6109695;23;20453;-78
2023/10/24 12:26:10;;;;;;;8.80;6.83;;;;;;;-143.90;100.00;65065.84;6214552;23;20032;-79
2023/10/24 12:28:36;;;;;;;9.48;7.00;;;;;;;-143.90;100.00;65065.84;6214575;23;20236;-79
2023/10/24 12:31:03;;;;;;;9.63;6.90;;;;;;;-143.90;100.00;65065.84;6214467;23;20001;-79
2023/10/24 12:33:29;;;;;;;10.45;6.80;;;;;;;-143.90;100.00;65065.84;6214344;23;20012;-78
2023/10/24 12:35:55;;;;;;;8.70;6.85;;;;;;;-143.90;100.00;65065.84;6187869;23;20008;-78
2023/10/24 12:38:21;;;;;;;11.93;7.40;;;;;;;-143.90;100.00;65065.84;6187783;23;20005;-78
2023/10/24 12:40:47;;;;;;;13.40;7.57;;;;;;;-143.90;100.00;65065.84;6212848;23;20418;-77
2023/10/24 12:43:12;;;;;;;10.48;7.30;;;;;;;-143.90;100.00;65065.84;6187955;23;20096;-79
2023/10/24 12:45:37;;;;;;;11.30;7.33;;;;;;;-143.90;100.00;65065.84;6214403;23;20436;-78
2023/10/24 12:48:07;;;;;;;12.00;7.97;;;;;;;-143.90;100.00;65065.84;6187783;23;20244;-80
2023/10/24 12:50:33;;;;;;;8.15;7.03;;;;;;;-143.90;100.00;65065.84;6187844;23;20452;-78
2023/10/24 12:52:58;;;;;;;10.40;7.57;;;;;;;-143.90;100.00;65065.84;6214225;23;20004;-80
2023/10/24 12:55:24;;;;;;;9.02;7.10;;;;;;;-143.90;100.00;65065.84;6187799;23;20047;-79
2023/10/24 12:57:49;;;;;;;10.52;6.00;;;;;;;-143.90;100.00;65065.84;6214327;23;20018;-78
2023/10/24 13:00:14;;;;;;;6.30;5.13;;;;;;;-143.90;100.00;65065.84;6187886;23;20015;-78
2023/10/24 13:03:12;;;;;;;6.63;5.07;;;;;;;-143.90;100.00;65065.84;6187680;23;20493;-80
2023/10/24 13:06:04;;;;;;;6.10;4.55;;;;;;;-143.90;100.00;65065.84;6187971;23;20013;-79
2023/10/24 13:08:32;;;;;;;5.60;4.03;;;;;;;-143.90;100.00;65065.84;6187532;23;20067;-80
2023/10/24 13:14:25;;;;;;;3.58;3.08;;;;;;;-143.90;100.00;65065.84;6214523;23;20031;-78
2023/10/24 13:16:50;;;;;;;3.03;2.72;;;;;;;-143.90;100.00;65065.84;6187449;23;20066;-78
2023/10/24 13:32:38;;;;;;;3.15;2.10;;;;;;;-143.90;100.00;65065.84;6064099;23;20323;-78
2023/10/24 13:35:06;;;;;;;3.47;2.40;;;;;;;-143.90;100.00;65065.84;6040101;23;20015;-78
2023/10/24 13:37:34;;;;;;;3.75;2.17;;;;;;;-143.90;100.00;65065.84;6056027;23;20015;-78
2023/10/24 13:40:19;;;;;;;;;;;;;;;;;;;;;
2023/10/24 13:42:45;;;;;;;2.30;2.10;;;;;;;-143.90;100.00;65065.84;6213983;23;20095;-79
2023/10/24 13:45:16;;;;;;;4.18;2.40;;;;;;;-143.90;100.00;65065.84;6214056;23;20071;-79
2023/10/24 13:47:49;;;;;;;2.70;2.10;;;;;;;-143.90;100.00;65065.84;6187445;23;20249;-79
2023/10/24 13:50:21;;;;;;;;;;;;;;;-143.90;100.00;65065.84;6188353;23;20009;-78
2023/10/24 13:52:48;;;;;;;3.08;2.42;;;;;;;-143.90;100.00;65065.84;6187414;23;19966;-77
2023/10/24 14:02:07;;;;;;;4.82;2.38;;;;;;;-143.90;100.00;65065.84;6137564;23;20015;-78